createdAt,value
2018-09-27T00:01:30.569Z,88.01
2018-09-27T00:03:59.104Z,87.78
2018-09-27T00:06:27.649Z,88.49
2018-09-27T00:08:56.245Z,87.45
2018-09-27T00:11:24.757Z,87.60
2018-09-27T00:13:53.259Z,87.22
2018-09-27T00:16:21.751Z,87.85
2018-09-27T00:18:50.284Z,87.33
2018-09-27T00:21:18.822Z,87.46
2018-09-27T00:23:47.288Z,88.02
2018-09-27T00:26:15.792Z,87.67
2018-09-27T00:28:44.251Z,88.32
2018-09-27T00:31:12.791Z,87.80
2018-09-27T00:33:41.271Z,88.36
2018-09-27T00:36:09.741Z,88.33
2018-09-27T00:38:38.277Z,88.18
2018-09-27T00:41:06.808Z,88.38
2018-09-27T00:43:35.272Z,88.33
2018-09-27T00:46:03.760Z,87.95
2018-09-27T00:48:32.255Z,88.02
2018-09-27T00:51:00.657Z,88.11
2018-09-27T00:53:29.162Z,87.79
2018-09-27T00:55:57.509Z,88.18
2018-09-27T00:58:25.908Z,88.33
2018-09-27T01:00:54.377Z,88.27
2018-09-27T01:03:22.741Z,87.67
2018-09-27T01:05:51.135Z,88.41
2018-09-27T01:08:19.488Z,88.64
2018-09-27T01:10:47.897Z,87.94
2018-09-27T01:13:16.297Z,88.14
2018-09-27T01:15:44.672Z,88.01
2018-09-27T01:18:13.046Z,88.11
2018-09-27T01:20:41.409Z,88.78
2018-09-27T01:23:09.778Z,88.25
2018-09-27T01:25:38.265Z,88.41
2018-09-27T01:28:06.696Z,88.77
2018-09-27T01:30:35.077Z,88.15
2018-09-27T01:33:03.478Z,89.06
2018-09-27T01:35:31.855Z,88.64
2018-09-27T01:38:00.248Z,88.78
2018-09-27T01:40:28.622Z,88.88
2018-09-27T01:42:56.981Z,88.90
2018-09-27T01:45:25.358Z,88.52
2018-09-27T01:47:53.748Z,89.04
2018-09-27T01:50:22.172Z,88.80
2018-09-27T01:52:50.597Z,88.42
2018-09-27T01:55:19.068Z,89.30
2018-09-27T01:57:47.425Z,88.14
2018-09-27T02:00:15.807Z,88.33
2018-09-27T02:02:44.154Z,88.64
2018-09-27T02:05:12.566Z,88.76
2018-09-27T02:07:40.928Z,89.14
2018-09-27T02:10:09.271Z,88.67
2018-09-27T02:12:37.695Z,88.89
2018-09-27T02:15:06.130Z,89.15
2018-09-27T02:17:34.537Z,89.57
2018-09-27T02:20:02.944Z,89.19
2018-09-27T02:22:31.476Z,88.69
2018-09-27T02:24:59.859Z,88.92
2018-09-27T02:27:28.934Z,88.34
2018-09-27T02:29:57.464Z,89.38
2018-09-27T02:32:25.825Z,89.05
2018-09-27T02:34:54.291Z,88.63
2018-09-27T02:37:22.665Z,89.16
2018-09-27T02:39:51.043Z,89.14
2018-09-27T02:42:19.450Z,88.96
2018-09-27T02:44:47.816Z,88.69
2018-09-27T02:47:16.184Z,88.75
2018-09-27T02:49:44.607Z,88.87
2018-09-27T02:52:13.001Z,89.02
2018-09-27T02:54:41.372Z,89.17
2018-09-27T02:57:09.758Z,90.16
2018-09-27T02:59:38.155Z,89.74
2018-09-27T03:02:06.565Z,89.34
2018-09-27T03:04:34.964Z,89.28
2018-09-27T03:07:03.349Z,89.12
2018-09-27T03:09:31.698Z,89.01
2018-09-27T03:12:00.101Z,88.91
2018-09-27T03:14:28.473Z,88.67
2018-09-27T03:16:56.866Z,88.43
2018-09-27T03:19:25.309Z,89.07
2018-09-27T03:21:53.676Z,89.73
2018-09-27T03:24:22.044Z,89.23
2018-09-27T03:26:50.489Z,89.23
2018-09-27T03:29:18.846Z,89.17
2018-09-27T03:31:47.221Z,89.63
2018-09-27T03:34:15.640Z,89.40
2018-09-27T03:36:44.041Z,89.50
2018-09-27T03:39:12.388Z,89.54
2018-09-27T03:41:40.774Z,89.55
2018-09-27T03:44:09.258Z,89.87
2018-09-27T03:46:37.668Z,89.39
2018-09-27T03:49:06.104Z,88.59
2018-09-27T03:51:35.166Z,89.08
2018-09-27T03:54:03.579Z,88.91
2018-09-27T03:56:31.938Z,88.89
2018-09-27T03:59:02.246Z,89.10
2018-09-27T04:01:30.817Z,88.90
2018-09-27T04:03:59.181Z,89.41
2018-09-27T04:06:27.547Z,89.51
2018-09-27T04:08:55.950Z,89.46
2018-09-27T04:11:24.307Z,88.74
2018-09-27T04:13:53.378Z,89.35
2018-09-27T04:16:21.792Z,89.83
2018-09-27T04:18:50.188Z,89.88
2018-09-27T04:21:18.638Z,89.99
2018-09-27T04:23:47.061Z,89.42
2018-09-27T04:26:15.525Z,89.30
2018-09-27T04:28:43.954Z,89.63
2018-09-27T04:31:12.377Z,89.95
2018-09-27T04:33:41.342Z,89.56
2018-09-27T04:36:09.713Z,90.36
2018-09-27T04:38:38.110Z,90.57
2018-09-27T04:41:06.502Z,90.39
2018-09-27T04:43:35.057Z,90.09
2018-09-27T04:46:03.558Z,89.76
2018-09-27T04:48:32.049Z,89.69
2018-09-27T04:51:00.425Z,89.26
2018-09-27T04:53:29.840Z,89.23
2018-09-27T04:55:58.236Z,89.48
2018-09-27T04:58:26.613Z,90.07
2018-09-27T05:00:55.057Z,90.04
2018-09-27T05:03:23.405Z,89.86
2018-09-27T05:05:51.800Z,89.82
2018-09-27T05:08:20.211Z,89.33
2018-09-27T05:10:49.164Z,90.17
2018-09-27T05:13:17.532Z,90.38
2018-09-27T05:15:45.945Z,90.50
2018-09-27T05:18:14.326Z,89.26
2018-09-27T05:20:42.807Z,90.15
2018-09-27T05:23:11.215Z,89.73
2018-09-27T05:25:39.595Z,89.51
2018-09-27T05:28:08.043Z,90.40
2018-09-27T05:30:36.446Z,89.92
2018-09-27T05:33:04.859Z,89.83
2018-09-27T05:35:33.317Z,90.24
2018-09-27T05:38:01.759Z,89.49
2018-09-27T05:40:31.247Z,90.37
2018-09-27T05:42:59.639Z,90.29
2018-09-27T05:45:28.046Z,90.60
2018-09-27T05:47:56.421Z,90.50
2018-09-27T05:50:24.792Z,89.82
2018-09-27T05:52:53.200Z,90.46
2018-09-27T05:55:21.614Z,90.37
2018-09-27T05:57:50.154Z,90.72
2018-09-27T06:00:18.596Z,89.81
2018-09-27T06:02:46.968Z,90.35
2018-09-27T06:05:15.418Z,90.70
2018-09-27T06:07:43.776Z,90.88
2018-09-27T06:10:12.209Z,90.71
2018-09-27T06:12:40.576Z,90.01
2018-09-27T06:15:09.011Z,90.28
2018-09-27T06:17:37.435Z,89.91
2018-09-27T06:20:05.845Z,90.16
2018-09-27T06:22:34.229Z,90.41
2018-09-27T06:25:02.602Z,90.60
2018-09-27T06:27:31.016Z,90.25
2018-09-27T06:29:59.436Z,91.23
2018-09-27T06:32:27.862Z,90.76
2018-09-27T06:34:56.301Z,90.79
2018-09-27T06:37:24.670Z,90.49
2018-09-27T06:39:53.065Z,91.13
2018-09-27T06:42:21.507Z,91.49
2018-09-27T06:44:49.820Z,91.07
2018-09-27T06:47:18.267Z,91.15
2018-09-27T06:49:46.680Z,91.22
2018-09-27T06:52:15.078Z,91.37
2018-09-27T06:54:43.549Z,90.79
2018-09-27T06:57:11.889Z,90.52
2018-09-27T06:59:40.302Z,91.10
2018-09-27T07:02:08.708Z,90.86
2018-09-27T07:04:37.115Z,90.50
2018-09-27T07:07:05.521Z,90.11
2018-09-27T07:09:33.908Z,89.61
2018-09-27T07:12:02.321Z,89.59
2018-09-27T07:14:30.704Z,88.91
2018-09-27T07:16:59.134Z,89.54
2018-09-27T07:19:27.565Z,89.45
2018-09-27T07:21:55.984Z,88.93
2018-09-27T07:24:24.384Z,88.92
2018-09-27T07:26:52.807Z,88.16
2018-09-27T07:29:21.196Z,87.87
2018-09-27T07:31:49.592Z,88.24
2018-09-27T07:34:17.946Z,88.31
2018-09-27T07:36:46.384Z,88.11
2018-09-27T07:39:14.805Z,88.16
2018-09-27T07:41:43.189Z,87.89
2018-09-27T07:44:12.911Z,88.08
2018-09-27T07:46:41.314Z,88.06
2018-09-27T07:49:09.831Z,88.59
2018-09-27T07:51:39.004Z,87.47
2018-09-27T07:54:07.491Z,87.58
2018-09-27T07:56:35.924Z,87.30
2018-09-27T07:59:04.401Z,87.07
2018-09-27T08:01:32.802Z,86.61
2018-09-27T08:04:01.325Z,86.04
2018-09-27T08:06:29.680Z,86.07
2018-09-27T08:08:58.163Z,85.81
2018-09-27T08:11:26.618Z,85.50
2018-09-27T08:13:54.990Z,85.68
2018-09-27T08:16:23.416Z,84.90
2018-09-27T08:18:51.840Z,83.85
2018-09-27T08:21:20.236Z,83.36
2018-09-27T08:23:48.632Z,82.85
2018-09-27T08:26:17.075Z,83.06
2018-09-27T08:28:45.479Z,82.83
2018-09-27T08:31:13.921Z,82.82
2018-09-27T08:33:42.281Z,83.09
2018-09-27T08:36:10.707Z,83.29
2018-09-27T08:38:39.122Z,83.02
2018-09-27T08:41:07.625Z,81.50
2018-09-27T08:43:36.018Z,81.80
2018-09-27T08:46:04.486Z,81.62
2018-09-27T08:48:32.974Z,81.37
2018-09-27T08:51:01.372Z,82.18
2018-09-27T08:53:29.780Z,81.14
2018-09-27T08:55:58.290Z,81.02
2018-09-27T08:58:26.719Z,81.60
2018-09-27T09:00:55.085Z,80.78
2018-09-27T09:03:23.544Z,80.60
2018-09-27T09:05:51.964Z,81.27
2018-09-27T09:08:20.356Z,79.72
2018-09-27T09:10:48.760Z,80.11
2018-09-27T09:13:17.199Z,79.83
2018-09-27T09:15:45.610Z,80.38
2018-09-27T09:18:14.036Z,80.94
2018-09-27T09:20:42.524Z,80.59
2018-09-27T09:23:10.945Z,81.33
2018-09-27T09:25:39.401Z,81.09
2018-09-27T09:28:07.772Z,81.10
2018-09-27T09:30:36.191Z,80.54
2018-09-27T09:33:04.637Z,80.94
2018-09-27T09:35:33.124Z,81.32
2018-09-27T09:38:01.517Z,80.70
2018-09-27T09:40:31.051Z,81.18
2018-09-27T09:42:59.955Z,80.80
2018-09-27T09:45:28.382Z,81.02
2018-09-27T09:47:56.776Z,80.05
2018-09-27T09:50:25.194Z,79.80
2018-09-27T09:52:53.620Z,79.82
2018-09-27T09:55:22.089Z,79.44
2018-09-27T09:57:50.505Z,79.04
2018-09-27T10:00:18.964Z,78.56
2018-09-27T10:02:47.377Z,78.47
2018-09-27T10:05:15.771Z,78.28
2018-09-27T10:07:44.193Z,77.94
2018-09-27T10:10:12.646Z,77.52
2018-09-27T10:12:41.077Z,77.31
2018-09-27T10:15:09.532Z,77.75
2018-09-27T10:17:38.052Z,75.73
2018-09-27T10:20:06.660Z,74.75
2018-09-27T10:22:35.091Z,75.46
2018-09-27T10:25:03.581Z,75.28
2018-09-27T10:27:32.048Z,73.91
2018-09-27T10:30:00.521Z,74.21
2018-09-27T10:32:28.901Z,73.11
2018-09-27T10:34:57.422Z,72.86
2018-09-27T10:37:25.792Z,73.43
2018-09-27T10:39:54.292Z,72.34
2018-09-27T10:42:22.773Z,70.63
2018-09-27T10:44:51.231Z,68.77
2018-09-27T10:47:19.669Z,69.48
2018-09-27T10:49:48.097Z,68.05
2018-09-27T10:52:16.517Z,67.22
2018-09-27T10:54:44.991Z,67.57
2018-09-27T10:57:13.560Z,68.40
2018-09-27T10:59:42.014Z,68.33
2018-09-27T11:02:10.455Z,66.61
2018-09-27T11:04:38.897Z,68.35
2018-09-27T11:07:07.390Z,67.93
2018-09-27T11:09:35.771Z,67.71
2018-09-27T11:12:04.249Z,67.73
2018-09-27T11:14:32.708Z,66.27
2018-09-27T11:17:01.095Z,64.83
2018-09-27T11:19:29.508Z,63.76
2018-09-27T11:21:57.992Z,63.47
2018-09-27T11:24:26.360Z,64.83
2018-09-27T11:26:54.796Z,60.98
2018-09-27T11:29:28.518Z,61.47
2018-09-27T11:32:02.275Z,62.70
2018-09-27T11:34:30.712Z,61.44
2018-09-27T11:36:59.114Z,61.70
2018-09-27T11:39:27.519Z,60.97
2018-09-27T11:41:55.929Z,61.71
2018-09-27T11:44:24.416Z,61.61
2018-09-27T11:46:52.985Z,62.36
2018-09-27T11:49:21.454Z,60.02
2018-09-27T11:51:49.897Z,61.28
2018-09-27T11:54:18.345Z,61.59
2018-09-27T11:56:46.768Z,60.02
2018-09-27T11:59:15.186Z,57.95
2018-09-27T12:01:43.702Z,59.12
2018-09-27T12:04:12.065Z,56.64
2018-09-27T12:06:40.533Z,56.30
2018-09-27T12:09:10.931Z,56.85
2018-09-27T12:11:39.342Z,55.44
2018-09-27T12:14:08.208Z,57.83
2018-09-27T12:16:36.683Z,58.38
2018-09-27T12:19:05.129Z,59.77
2018-09-27T12:21:33.625Z,59.84
2018-09-27T12:24:02.069Z,60.38
2018-09-27T12:26:30.544Z,55.96
2018-09-27T12:28:59.069Z,54.44
2018-09-27T12:31:27.497Z,56.01
2018-09-27T12:33:56.533Z,55.83
2018-09-27T12:36:25.025Z,52.93
2018-09-27T12:38:53.503Z,53.23
2018-09-27T12:41:21.858Z,51.75
2018-09-27T12:43:50.277Z,52.55
2018-09-27T12:46:18.705Z,52.30
2018-09-27T12:48:47.265Z,50.64
2018-09-27T12:51:15.937Z,49.86
2018-09-27T12:53:45.042Z,45.55
2018-09-27T12:56:13.515Z,48.87
2018-09-27T12:58:42.060Z,50.49
2018-09-27T13:01:10.518Z,51.13
2018-09-27T13:03:38.883Z,52.10
2018-09-27T13:06:07.347Z,45.87
2018-09-27T13:08:35.861Z,50.65
2018-09-27T13:11:04.196Z,51.70
2018-09-27T13:13:32.761Z,47.78
2018-09-27T13:16:01.114Z,41.90
2018-09-27T13:18:29.450Z,43.91
2018-09-27T13:20:57.869Z,45.23
2018-09-27T13:23:26.396Z,45.89
2018-09-27T13:25:54.775Z,48.93
2018-09-27T13:28:23.204Z,48.47
2018-09-27T13:30:51.648Z,48.61
2018-09-27T13:33:20.084Z,50.07
2018-09-27T13:35:48.513Z,48.68
2018-09-27T13:38:16.889Z,52.72
2018-09-27T13:40:45.252Z,49.05
2018-09-27T13:43:13.687Z,50.86
2018-09-27T13:45:42.132Z,51.39
2018-09-27T13:48:10.616Z,51.28
2018-09-27T13:50:39.088Z,47.41
2018-09-27T13:53:07.519Z,45.51
2018-09-27T13:55:36.001Z,48.69
2018-09-27T13:58:04.475Z,47.77
2018-09-27T14:00:32.899Z,48.56
2018-09-27T14:03:01.401Z,47.90
2018-09-27T14:05:29.839Z,46.65
2018-09-27T14:07:58.280Z,46.18
2018-09-27T14:10:26.768Z,44.73
2018-09-27T14:12:55.185Z,45.68
2018-09-27T14:15:23.598Z,45.12
2018-09-27T14:17:52.010Z,46.81
2018-09-27T14:20:20.441Z,46.85
2018-09-27T14:22:49.064Z,46.75
2018-09-27T14:25:17.445Z,49.97
2018-09-27T14:27:45.891Z,48.27
2018-09-27T14:30:14.311Z,46.78
2018-09-27T14:32:42.767Z,45.79
2018-09-27T14:35:11.296Z,45.72
2018-09-27T14:37:39.741Z,45.37
2018-09-27T14:40:09.113Z,47.90
2018-09-27T14:42:37.593Z,46.76
2018-09-27T14:45:06.123Z,49.16
2018-09-27T14:47:34.677Z,50.35
2018-09-27T14:50:03.161Z,51.05
2018-09-27T14:52:31.550Z,52.18
2018-09-27T14:55:00.009Z,52.39
2018-09-27T14:57:28.403Z,50.08
2018-09-27T14:59:56.952Z,48.19
2018-09-27T15:02:25.383Z,46.45
2018-09-27T15:04:53.846Z,46.25
2018-09-27T15:07:22.254Z,46.24
2018-09-27T15:09:50.816Z,46.42
2018-09-27T15:12:19.188Z,46.70
2018-09-27T15:14:47.603Z,47.31
2018-09-27T15:17:16.045Z,47.84
2018-09-27T15:19:44.517Z,48.45
2018-09-27T15:22:12.930Z,48.32
2018-09-27T15:24:41.327Z,48.42
2018-09-27T15:27:09.988Z,49.78
2018-09-27T15:29:38.536Z,49.04
2018-09-27T15:32:06.973Z,48.83
2018-09-27T15:34:35.442Z,48.75
2018-09-27T15:37:03.911Z,49.32
2018-09-27T15:39:32.397Z,50.34
2018-09-27T15:42:00.843Z,51.66
2018-09-27T15:44:29.277Z,48.51
2018-09-27T15:46:57.697Z,51.68
2018-09-27T15:49:26.200Z,53.55
2018-09-27T15:51:54.661Z,51.35
2018-09-27T15:54:23.032Z,50.45
2018-09-27T15:56:51.493Z,50.03
2018-09-27T15:59:19.912Z,48.93
2018-09-27T16:01:48.367Z,48.52
2018-09-27T16:04:16.801Z,46.36
2018-09-27T16:06:45.227Z,49.15
2018-09-27T16:09:13.659Z,49.00
2018-09-27T16:11:42.637Z,49.08
2018-09-27T16:14:11.168Z,50.13
2018-09-27T16:16:39.958Z,50.05
2018-09-27T16:19:08.347Z,50.42
2018-09-27T16:21:37.608Z,50.16
2018-09-27T16:24:06.056Z,49.76
2018-09-27T16:26:34.528Z,50.68
2018-09-27T16:29:02.949Z,51.32
2018-09-27T16:31:31.355Z,54.57
2018-09-27T16:33:59.805Z,55.34
2018-09-27T16:36:28.283Z,55.69
2018-09-27T16:38:56.645Z,58.54
2018-09-27T16:41:25.151Z,59.64
2018-09-27T16:43:53.578Z,61.06
2018-09-27T16:46:21.997Z,62.86
2018-09-27T16:48:50.407Z,63.29
2018-09-27T16:51:18.833Z,64.37
2018-09-27T16:53:48.257Z,65.16
2018-09-27T16:56:17.369Z,67.04
2018-09-27T16:58:45.779Z,68.98
2018-09-27T17:01:14.200Z,70.34
2018-09-27T17:03:42.616Z,70.81
2018-09-27T17:06:11.048Z,70.74
2018-09-27T17:08:39.445Z,71.30
2018-09-27T17:11:07.933Z,71.97
2018-09-27T17:13:36.553Z,72.04
2018-09-27T17:16:04.972Z,73.01
2018-09-27T17:18:33.559Z,73.75
2018-09-27T17:21:02.001Z,74.38
2018-09-27T17:23:30.440Z,73.78
2018-09-27T17:25:58.895Z,75.32
2018-09-27T17:28:27.469Z,74.69
2018-09-27T17:30:55.857Z,75.83
2018-09-27T17:33:24.253Z,75.92
2018-09-27T17:35:52.659Z,76.60
2018-09-27T17:38:21.043Z,76.86
2018-09-27T17:40:49.611Z,77.21
2018-09-27T17:43:18.078Z,78.13
2018-09-27T17:45:46.484Z,78.36
2018-09-27T17:48:14.931Z,78.94
2018-09-27T17:50:43.403Z,78.47
2018-09-27T17:53:12.006Z,79.43
2018-09-27T17:55:40.437Z,78.92
2018-09-27T17:58:08.865Z,80.05
2018-09-27T18:00:37.352Z,80.22
2018-09-27T18:03:05.901Z,80.12
2018-09-27T18:05:34.402Z,80.67
2018-09-27T18:08:02.882Z,79.59
2018-09-27T18:10:31.308Z,80.31
2018-09-27T18:12:59.802Z,80.27
2018-09-27T18:15:28.268Z,81.94
2018-09-27T18:17:56.701Z,80.39
2018-09-27T18:20:25.092Z,81.06
2018-09-27T18:22:53.765Z,81.93
2018-09-27T18:25:22.164Z,82.00
2018-09-27T18:27:50.659Z,82.49
2018-09-27T18:30:19.084Z,82.98
2018-09-27T18:32:47.521Z,81.45
2018-09-27T18:35:15.959Z,82.23
2018-09-27T18:37:44.427Z,83.53
2018-09-27T18:40:13.143Z,82.02
2018-09-27T18:42:41.970Z,82.06
2018-09-27T18:45:10.435Z,82.83
2018-09-27T18:47:39.564Z,82.06
2018-09-27T18:50:08.895Z,82.88
2018-09-27T18:52:37.460Z,83.23
2018-09-27T18:55:05.901Z,83.45
2018-09-27T18:57:34.342Z,83.22
2018-09-27T19:00:02.761Z,83.84
2018-09-27T19:02:31.167Z,83.01
2018-09-27T19:04:59.630Z,83.37
2018-09-27T19:07:28.115Z,82.93
2018-09-27T19:09:56.530Z,83.03
2018-09-27T19:12:25.013Z,83.13
2018-09-27T19:14:53.436Z,82.61
2018-09-27T19:17:21.845Z,82.88
2018-09-27T19:19:50.270Z,83.49
2018-09-27T19:22:18.768Z,84.06
2018-09-27T19:24:47.239Z,83.50
2018-09-27T19:27:15.725Z,84.62
2018-09-27T19:29:44.165Z,84.46
2018-09-27T19:32:12.606Z,83.99
2018-09-27T19:34:41.001Z,83.54
2018-09-27T19:37:09.569Z,84.03
2018-09-27T19:39:38.060Z,83.73
2018-09-27T19:42:06.576Z,83.54
2018-09-27T19:44:35.029Z,83.37
2018-09-27T19:47:03.481Z,83.50
2018-09-27T19:49:31.919Z,83.41
2018-09-27T19:52:00.352Z,83.62
2018-09-27T19:54:28.753Z,84.69
2018-09-27T19:56:57.152Z,84.33
2018-09-27T19:59:25.641Z,83.61
2018-09-27T20:01:54.067Z,83.96
2018-09-27T20:04:22.514Z,84.50
2018-09-27T20:06:51.260Z,84.24
2018-09-27T20:09:19.771Z,84.07
2018-09-27T20:11:48.326Z,84.54
2018-09-27T20:14:17.072Z,84.22
2018-09-27T20:16:45.715Z,84.22
2018-09-27T20:19:14.360Z,84.05
2018-09-27T20:21:42.793Z,84.21
2018-09-27T20:24:11.189Z,84.57
2018-09-27T20:26:39.629Z,84.43
2018-09-27T20:29:08.074Z,84.62
2018-09-27T20:31:36.524Z,84.08
2018-09-27T20:34:05.093Z,84.79
2018-09-27T20:36:33.564Z,84.53
2018-09-27T20:39:02.018Z,84.30
2018-09-27T20:41:30.470Z,83.82
2018-09-27T20:43:58.876Z,84.52
2018-09-27T20:46:27.345Z,84.16
2018-09-27T20:48:57.676Z,84.74
2018-09-27T20:51:26.137Z,84.23
2018-09-27T20:53:54.669Z,84.67
2018-09-27T20:56:23.033Z,85.29
2018-09-27T20:58:51.456Z,84.79
2018-09-27T21:01:19.881Z,85.21
2018-09-27T21:03:48.312Z,85.78
2018-09-27T21:06:16.720Z,84.84
2018-09-27T21:08:45.148Z,84.51
2018-09-27T21:11:13.576Z,84.96
2018-09-27T21:13:41.929Z,84.91
2018-09-27T21:16:10.354Z,84.96
2018-09-27T21:18:38.793Z,85.15
2018-09-27T21:21:07.192Z,85.72
2018-09-27T21:23:35.633Z,85.12
2018-09-27T21:26:04.061Z,84.68
2018-09-27T21:28:32.494Z,85.42
2018-09-27T21:31:00.947Z,85.41
2018-09-27T21:33:29.372Z,85.95
2018-09-27T21:35:57.850Z,84.78
2018-09-27T21:38:26.230Z,84.83
2018-09-27T21:40:54.683Z,85.09
2018-09-27T21:43:23.193Z,85.21
2018-09-27T21:45:51.542Z,85.84
2018-09-27T21:48:20.010Z,85.82
2018-09-27T21:50:48.447Z,86.15
2018-09-27T21:53:16.874Z,85.86
2018-09-27T21:55:45.268Z,85.36
2018-09-27T21:58:13.713Z,85.45
2018-09-27T22:00:42.097Z,85.02
2018-09-27T22:03:10.517Z,85.71
2018-09-27T22:05:38.925Z,85.10
2018-09-27T22:08:11.021Z,84.98
2018-09-27T22:10:40.618Z,84.73
2018-09-27T22:13:09.003Z,86.02
2018-09-27T22:15:37.432Z,85.81
2018-09-27T22:18:05.906Z,85.57
2018-09-27T22:20:34.321Z,86.09
2018-09-27T22:23:02.732Z,85.82
2018-09-27T22:25:31.229Z,86.30
2018-09-27T22:27:59.628Z,85.90
2018-09-27T22:30:28.012Z,86.15
2018-09-27T22:32:56.423Z,86.08
2018-09-27T22:35:24.994Z,86.14
2018-09-27T22:37:53.378Z,86.13
2018-09-27T22:40:21.786Z,85.94
2018-09-27T22:42:50.201Z,85.75
2018-09-27T22:45:18.662Z,86.53
2018-09-27T22:47:47.065Z,86.14
2018-09-27T22:50:15.472Z,85.85
2018-09-27T22:52:43.915Z,85.62
2018-09-27T22:55:12.359Z,86.19
2018-09-27T22:57:40.745Z,85.17
2018-09-27T23:00:09.219Z,85.90
2018-09-27T23:02:37.637Z,86.66
2018-09-27T23:05:06.042Z,86.39
2018-09-27T23:07:34.652Z,86.23
2018-09-27T23:10:03.061Z,85.12
2018-09-27T23:12:31.436Z,86.06
2018-09-27T23:14:59.827Z,85.95
2018-09-27T23:17:28.228Z,86.67
2018-09-27T23:19:56.609Z,86.39
2018-09-27T23:22:25.065Z,86.50
2018-09-27T23:24:53.691Z,86.19
2018-09-27T23:27:22.129Z,85.94
2018-09-27T23:29:50.527Z,86.45
2018-09-27T23:32:18.929Z,85.82
2018-09-27T23:34:47.305Z,86.57
2018-09-27T23:37:15.692Z,85.61
2018-09-27T23:39:44.106Z,85.63
2018-09-27T23:42:12.486Z,85.95
2018-09-27T23:44:40.957Z,86.16
2018-09-27T23:47:09.390Z,86.25
2018-09-27T23:49:37.787Z,86.19
2018-09-27T23:52:06.213Z,85.93
2018-09-27T23:54:34.648Z,86.15
2018-09-27T23:57:03.078Z,85.75
2018-09-27T23:59:31.460Z,86.04
